Time;durP1;ratioP1;P1;durP2;ratioP2;P2;SDS_P1;SDS_P2;PMS_P1;PMS_P2;Temp;Humidity;BMP_temperature;BMP_pressure;BME280_temperature;BME280_humidity;BME280_pressure;Samples;Min_cycle;Max_cycle;Signal;HPM_P1;HPM_P2
2023/11/12 00:02:22;;;;;;;9.93;8.73;;;;;;;;;;4907528;29;20036;-73
2023/11/12 00:04:48;;;;;;;9.80;8.98;;;;;;;;;;4921317;29;20085;-73
2023/11/12 00:07:14;;;;;;;8.88;7.97;;;;;;;;;;4905718;29;20040;-74
2023/11/12 00:09:41;;;;;;;10.30;9.40;;;;;;;;;;4903778;29;20029;-73
2023/11/12 00:12:08;;;;;;;11.48;8.70;;;;;;;;;;4907738;29;20067;-74
2023/11/12 00:14:34;;;;;;;11.43;10.27;;;;;;;;;;4930784;29;20062;-77
2023/11/12 00:17:01;;;;;;;13.00;11.30;;;;;;;;;;4898656;29;20032;-74
2023/11/12 00:19:27;;;;;;;7.60;6.90;;;;;;;;;;4913756;29;20059;-74
2023/11/12 00:21:53;;;;;;;9.85;8.88;;;;;;;;;;4929960;29;20075;-75
2023/11/12 00:24:19;;;;;;;7.72;6.97;;;;;;;;;;4917396;29;20040;-73
2023/11/12 00:26:45;;;;;;;16.45;12.32;;;;;;;;;;4924061;29;20138;-76
2023/11/12 00:29:11;;;;;;;10.27;9.25;;;;;;;;;;4909603;29;20028;-74
2023/11/12 00:31:37;;;;;;;11.25;10.20;;;;;;;;;;4925420;29;20072;-73
2023/11/12 00:34:03;;;;;;;8.02;7.30;;;;;;;;;;4932221;29;20127;-73
2023/11/12 00:36:30;;;;;;;8.73;7.93;;;;;;;;;;4916914;29;20064;-73
2023/11/12 00:38:56;;;;;;;9.60;8.80;;;;;;;;;;4918065;29;20095;-72
2023/11/12 00:41:22;;;;;;;12.88;10.52;;;;;;;;;;4917960;29;20125;-73
2023/11/12 00:43:48;;;;;;;11.23;10.23;;;;;;;;;;4932282;29;20108;-74
2023/11/12 00:46:14;;;;;;;10.13;9.10;;;;;;;;;;4900522;29;20436;-74
2023/11/12 00:48:43;;;;;;;8.57;7.60;;;;;;;;;;4929746;29;20036;-73
2023/11/12 00:51:10;;;;;;;6.32;5.82;;;;;;;;;;4912901;29;20127;-73
2023/11/12 00:53:36;;;;;;;13.10;10.50;;;;;;;;;;4912926;29;20395;-73
2023/11/12 00:56:03;;;;;;;12.27;9.95;;;;;;;;;;4914351;29;20047;-73
2023/11/12 00:58:30;;;;;;;13.55;9.93;;;;;;;;;;4913906;29;20423;-73
2023/11/12 01:00:56;;;;;;;14.13;12.68;;;;;;;;;;4913132;29;20510;-74
2023/11/12 01:03:23;;;;;;;13.55;10.85;;;;;;;;;;4912709;29;20075;-74
2023/11/12 01:05:52;;;;;;;10.90;9.77;;;;;;;;;;4893725;29;20104;-74
2023/11/12 01:08:19;;;;;;;9.88;8.75;;;;;;;;;;4896302;29;20070;-75
2023/11/12 01:10:45;;;;;;;11.38;9.77;;;;;;;;;;4898100;29;20091;-73
2023/11/12 01:13:11;;;;;;;11.40;10.25;;;;;;;;;;4899631;29;20502;-72
2023/11/12 01:15:37;;;;;;;13.90;11.05;;;;;;;;;;4898720;29;20439;-73
2023/11/12 01:18:04;;;;;;;19.17;15.90;;;;;;;;;;4881966;29;20072;-73
2023/11/12 01:20:30;;;;;;;19.98;15.50;;;;;;;;;;4881475;29;20496;-72
2023/11/12 01:22:56;;;;;;;18.33;12.98;;;;;;;;;;4898620;29;20120;-74
2023/11/12 01:25:22;;;;;;;13.38;9.50;;;;;;;;;;4897708;29;20036;-73
2023/11/12 01:27:48;;;;;;;13.85;12.43;;;;;;;;;;4899334;29;20052;-74
2023/11/12 01:30:15;;;;;;;12.05;9.55;;;;;;;;;;4899709;29;20028;-73
2023/11/12 01:32:40;;;;;;;9.73;8.68;;;;;;;;;;4912529;29;20052;-73
2023/11/12 01:35:07;;;;;;;11.10;10.02;;;;;;;;;;4919692;29;20522;-74
2023/11/12 01:37:33;;;;;;;16.50;11.88;;;;;;;;;;4917025;29;20103;-74
2023/11/12 01:39:59;;;;;;;15.35;12.25;;;;;;;;;;4901320;29;20043;-73
2023/11/12 01:42:25;;;;;;;15.95;12.00;;;;;;;;;;4917221;29;20123;-75
2023/11/12 01:44:52;;;;;;;23.75;14.05;;;;;;;;;;4916840;29;20044;-74
2023/11/12 01:47:18;;;;;;;12.98;11.18;;;;;;;;;;4915424;29;20052;-73
2023/11/12 01:49:45;;;;;;;14.07;12.32;;;;;;;;;;4920213;29;20040;-74
2023/11/12 01:52:11;;;;;;;15.70;12.32;;;;;;;;;;4938394;29;20043;-75
2023/11/12 01:54:39;;;;;;;22.30;17.35;;;;;;;;;;4937998;29;20091;-73
2023/11/12 01:57:05;;;;;;;22.77;13.52;;;;;;;;;;4955423;29;20109;-72
2023/11/12 01:59:34;;;;;;;13.00;11.45;;;;;;;;;;4955420;29;20114;-73
2023/11/12 02:02:00;;;;;;;13.90;11.15;;;;;;;;;;4954504;28;20055;-72
2023/11/12 02:04:29;;;;;;;13.25;11.13;;;;;;;;;;4937214;28;20035;-73
2023/11/12 02:06:55;;;;;;;18.90;14.57;;;;;;;;;;4954782;28;20035;-73
2023/11/12 02:09:25;;;;;;;16.77;13.82;;;;;;;;;;4954699;28;20061;-73
2023/11/12 02:11:51;;;;;;;15.52;14.02;;;;;;;;;;4937828;28;20066;-73
2023/11/12 02:14:20;;;;;;;12.25;10.68;;;;;;;;;;4937474;28;20035;-71
2023/11/12 02:16:50;;;;;;;14.88;11.45;;;;;;;;;;4938204;29;20413;-71
2023/11/12 02:19:23;;;;;;;16.98;13.98;;;;;;;;;;4937784;28;20031;-73
2023/11/12 02:22:09;;;;;;;24.80;16.23;;;;;;;;;;4927507;28;20082;-73
2023/11/12 02:24:35;;;;;;;26.73;18.52;;;;;;;;;;4954460;28;20035;-73
2023/11/12 02:27:01;;;;;;;16.73;14.15;;;;;;;;;;4954813;28;20035;-73
2023/11/12 02:29:27;;;;;;;13.63;12.30;;;;;;;;;;4936886;28;20035;-73
2023/11/12 02:31:53;;;;;;;16.63;13.75;;;;;;;;;;4936915;29;20050;-73
2023/11/12 02:34:21;;;;;;;14.40;12.75;;;;;;;;;;4936466;29;20043;-74
2023/11/12 02:36:47;;;;;;;16.80;14.82;;;;;;;;;;4920485;29;20069;-73
2023/11/12 02:39:14;;;;;;;16.35;14.50;;;;;;;;;;4937247;29;20418;-72
2023/11/12 02:41:40;;;;;;;18.88;14.75;;;;;;;;;;4954613;29;20434;-73
2023/11/12 02:44:11;;;;;;;16.05;12.85;;;;;;;;;;4953962;29;20099;-73
2023/11/12 02:46:38;;;;;;;16.20;13.98;;;;;;;;;;4937219;29;20090;-73
2023/11/12 02:49:08;;;;;;;20.85;13.23;;;;;;;;;;4936427;29;20039;-72
2023/11/12 02:51:35;;;;;;;20.17;17.65;;;;;;;;;;4936546;29;20055;-73
2023/11/12 02:54:01;;;;;;;13.45;11.20;;;;;;;;;;4936955;29;20051;-75
2023/11/12 02:56:27;;;;;;;17.77;15.23;;;;;;;;;;4953579;29;20146;-74
2023/11/12 02:58:54;;;;;;;16.85;13.80;;;;;;;;;;4936600;29;20046;-73
2023/11/12 03:01:20;;;;;;;17.70;14.18;;;;;;;;;;4952077;29;20035;-75
2023/11/12 03:03:46;;;;;;;14.40;11.30;;;;;;;;;;4937035;29;20089;-74
2023/11/12 03:06:12;;;;;;;19.95;16.58;;;;;;;;;;4936742;29;20039;-74
2023/11/12 03:08:42;;;;;;;20.90;17.60;;;;;;;;;;4936482;29;20506;-73
2023/11/12 03:11:12;;;;;;;11.27;10.15;;;;;;;;;;4954490;29;20041;-73
2023/11/12 03:13:38;;;;;;;12.73;11.40;;;;;;;;;;4937656;29;20097;-74
2023/11/12 03:16:04;;;;;;;20.27;12.40;;;;;;;;;;4936666;29;20035;-74
2023/11/12 03:18:30;;;;;;;12.38;10.93;;;;;;;;;;4936466;29;20067;-73
2023/11/12 03:20:56;;;;;;;9.10;8.35;;;;;;;;;;4953249;29;20603;-74
2023/11/12 03:23:22;;;;;;;21.05;14.43;;;;;;;;;;4952921;29;20449;-74
2023/11/12 03:25:49;;;;;;;11.57;10.48;;;;;;;;;;4953036;29;20031;-73
2023/11/12 03:28:15;;;;;;;11.52;10.43;;;;;;;;;;4935978;29;20113;-72
2023/11/12 03:30:41;;;;;;;11.50;10.32;;;;;;;;;;4934878;29;20150;-74
2023/11/12 03:33:07;;;;;;;14.23;11.65;;;;;;;;;;4919736;29;20529;-73
2023/11/12 03:35:34;;;;;;;9.35;8.55;;;;;;;;;;4952482;29;20054;-74
2023/11/12 03:38:01;;;;;;;10.82;9.73;;;;;;;;;;4951588;29;20050;-71
2023/11/12 03:40:27;;;;;;;10.40;8.77;;;;;;;;;;4951388;29;20085;-72
2023/11/12 03:42:53;;;;;;;16.17;10.15;;;;;;;;;;4952923;29;20126;-74
2023/11/12 03:45:19;;;;;;;8.75;7.35;;;;;;;;;;4953402;29;20059;-74
2023/11/12 03:47:46;;;;;;;10.15;8.93;;;;;;;;;;4952996;29;20541;-74
2023/11/12 03:50:12;;;;;;;7.28;6.55;;;;;;;;;;4952598;29;20047;-74
2023/11/12 03:52:38;;;;;;;8.75;7.95;;;;;;;;;;4952741;29;20062;-74
2023/11/12 03:55:05;;;;;;;12.27;11.23;;;;;;;;;;4952887;29;20133;-73
2023/11/12 03:57:31;;;;;;;9.07;8.15;;;;;;;;;;4952866;29;20035;-74
2023/11/12 03:59:58;;;;;;;10.60;7.55;;;;;;;;;;4952975;29;20572;-73
2023/11/12 04:02:24;;;;;;;8.15;4.90;;;;;;;;;;4935204;29;20174;-74
2023/11/12 04:04:50;;;;;;;7.90;7.30;;;;;;;;;;4935452;29;20035;-73
2023/11/12 04:07:16;;;;;;;9.15;8.45;;;;;;;;;;4935345;29;20561;-73
2023/11/12 04:09:42;;;;;;;9.23;8.43;;;;;;;;;;4935032;29;20037;-72
2023/11/12 04:12:11;;;;;;;7.03;6.45;;;;;;;;;;4935277;29;20474;-73
2023/11/12 04:14:37;;;;;;;5.97;5.57;;;;;;;;;;4952237;29;20042;-73
2023/11/12 04:17:04;;;;;;;6.88;6.35;;;;;;;;;;4952334;29;20564;-73
2023/11/12 04:19:30;;;;;;;7.57;6.95;;;;;;;;;;4952235;29;20035;-73
2023/11/12 04:21:57;;;;;;;8.98;7.88;;;;;;;;;;4935672;29;20073;-74
2023/11/12 04:24:26;;;;;;;5.75;5.25;;;;;;;;;;4963152;29;20067;-74
2023/11/12 04:26:54;;;;;;;8.48;7.68;;;;;;;;;;4958419;29;20058;-75
2023/11/12 04:29:20;;;;;;;7.43;6.75;;;;;;;;;;4952000;29;20077;-74
2023/11/12 04:31:47;;;;;;;5.35;4.95;;;;;;;;;;4952399;29;20046;-74
2023/11/12 04:34:13;;;;;;;14.93;13.60;;;;;;;;;;4951677;29;20043;-73
2023/11/12 04:36:39;;;;;;;6.32;5.80;;;;;;;;;;4951897;29;20457;-72
2023/11/12 04:39:07;;;;;;;12.60;11.30;;;;;;;;;;4950922;29;20042;-75
2023/11/12 04:41:35;;;;;;;8.55;7.75;;;;;;;;;;4935065;29;20046;-74
2023/11/12 04:44:01;;;;;;;8.10;7.07;;;;;;;;;;4954828;28;20359;-74
2023/11/12 04:46:27;;;;;;;10.27;9.27;;;;;;;;;;4955890;29;20046;-75
2023/11/12 04:48:54;;;;;;;12.63;10.02;;;;;;;;;;4956934;29;20469;-75
2023/11/12 04:51:20;;;;;;;8.00;7.25;;;;;;;;;;4938735;29;20100;-74
2023/11/12 04:53:46;;;;;;;7.30;6.70;;;;;;;;;;4945839;29;20046;-74
2023/11/12 04:56:13;;;;;;;7.47;6.88;;;;;;;;;;4953918;29;20472;-75
2023/11/12 04:58:40;;;;;;;5.95;5.38;;;;;;;;;;4944827;29;20046;-75
2023/11/12 05:01:08;;;;;;;7.78;6.68;;;;;;;;;;4946341;29;21235;-75
2023/11/12 05:03:35;;;;;;;6.80;6.20;;;;;;;;;;4948496;29;20035;-74
2023/11/12 05:06:01;;;;;;;10.70;7.72;;;;;;;;;;4938580;29;20039;-76
2023/11/12 05:08:27;;;;;;;8.13;7.35;;;;;;;;;;4953906;29;20126;-74
2023/11/12 05:10:53;;;;;;;5.22;4.82;;;;;;;;;;4936510;29;20414;-74
2023/11/12 05:13:19;;;;;;;8.25;7.47;;;;;;;;;;4938454;29;20059;-74
2023/11/12 05:15:46;;;;;;;6.53;5.97;;;;;;;;;;4938616;29;20141;-74
2023/11/12 05:18:13;;;;;;;10.43;9.32;;;;;;;;;;4956832;29;20457;-74
2023/11/12 05:20:39;;;;;;;7.75;7.05;;;;;;;;;;4941877;29;20043;-74
2023/11/12 05:23:05;;;;;;;7.80;7.07;;;;;;;;;;4953711;29;20034;-75
2023/11/12 05:25:31;;;;;;;9.43;8.52;;;;;;;;;;4962281;29;20094;-74
2023/11/12 05:27:57;;;;;;;9.32;8.43;;;;;;;;;;4926639;29;20090;-74
2023/11/12 05:30:24;;;;;;;7.07;6.47;;;;;;;;;;4937697;29;20031;-74
2023/11/12 05:32:50;;;;;;;11.25;9.93;;;;;;;;;;4936099;29;20479;-74
2023/11/12 05:35:17;;;;;;;9.90;9.10;;;;;;;;;;4947258;29;20043;-74
2023/11/12 05:37:43;;;;;;;8.13;7.32;;;;;;;;;;4955243;29;20032;-74
2023/11/12 05:40:10;;;;;;;6.47;5.88;;;;;;;;;;4955106;29;20537;-74
2023/11/12 05:42:35;;;;;;;7.45;6.78;;;;;;;;;;4954496;29;20497;-73
2023/11/12 05:45:01;;;;;;;5.88;5.38;;;;;;;;;;4952901;29;20039;-73
2023/11/12 05:47:31;;;;;;;6.35;5.85;;;;;;;;;;4936503;29;20066;-74
2023/11/12 05:49:57;;;;;;;7.05;6.35;;;;;;;;;;4944301;29;20481;-72
2023/11/12 05:52:23;;;;;;;7.53;6.70;;;;;;;;;;4943617;29;20052;-74
2023/11/12 05:54:49;;;;;;;8.90;8.02;;;;;;;;;;4953846;28;20078;-73
2023/11/12 05:57:15;;;;;;;8.45;7.45;;;;;;;;;;4954573;29;20491;-73
2023/11/12 05:59:41;;;;;;;6.65;6.05;;;;;;;;;;4931890;29;20042;-73
2023/11/12 06:02:08;;;;;;;7.75;7.03;;;;;;;;;;4953248;29;20215;-73
2023/11/12 06:04:34;;;;;;;6.55;5.85;;;;;;;;;;4934932;29;20064;-73
2023/11/12 06:07:01;;;;;;;6.38;5.82;;;;;;;;;;4954572;29;20039;-73
2023/11/12 06:09:27;;;;;;;10.15;9.25;;;;;;;;;;4954146;29;20043;-74
2023/11/12 06:11:54;;;;;;;9.52;8.73;;;;;;;;;;4952935;29;20031;-74
2023/11/12 06:14:21;;;;;;;7.85;7.07;;;;;;;;;;4937176;29;20035;-73
2023/11/12 06:16:48;;;;;;;7.72;7.05;;;;;;;;;;4954023;29;20046;-73
2023/11/12 06:19:14;;;;;;;6.38;5.78;;;;;;;;;;4937335;29;20050;-73
2023/11/12 06:21:40;;;;;;;8.60;8.00;;;;;;;;;;4954100;29;20035;-74
2023/11/12 06:24:06;;;;;;;7.43;6.53;;;;;;;;;;4954204;29;20038;-73
2023/11/12 06:26:32;;;;;;;8.45;7.57;;;;;;;;;;4953973;29;20134;-74
2023/11/12 06:28:58;;;;;;;5.45;5.05;;;;;;;;;;4954315;29;20090;-73
2023/11/12 06:31:25;;;;;;;6.10;5.60;;;;;;;;;;4954171;29;20453;-73
2023/11/12 06:33:51;;;;;;;6.57;6.07;;;;;;;;;;4953946;29;20047;-73
2023/11/12 06:36:17;;;;;;;6.05;5.55;;;;;;;;;;4936709;29;20042;-73
2023/11/12 06:38:43;;;;;;;8.00;7.40;;;;;;;;;;4953728;29;20040;-74
2023/11/12 06:41:10;;;;;;;7.22;6.63;;;;;;;;;;4954291;29;20042;-74
2023/11/12 06:43:36;;;;;;;5.40;5.00;;;;;;;;;;4954031;29;20413;-74
2023/11/12 06:46:03;;;;;;;8.30;5.93;;;;;;;;;;4952618;29;20133;-73
2023/11/12 06:48:30;;;;;;;6.50;6.00;;;;;;;;;;4953761;29;20043;-75
2023/11/12 06:50:56;;;;;;;8.00;6.68;;;;;;;;;;4953515;29;20552;-74
2023/11/12 06:53:22;;;;;;;7.03;6.32;;;;;;;;;;4949278;29;20047;-75
2023/11/12 06:55:48;;;;;;;6.43;5.82;;;;;;;;;;4933162;29;20036;-72
2023/11/12 06:58:14;;;;;;;12.80;6.00;;;;;;;;;;4939740;28;20035;-72
2023/11/12 07:00:41;;;;;;;6.93;6.43;;;;;;;;;;4952943;28;20174;-73
2023/11/12 07:03:07;;;;;;;7.32;6.72;;;;;;;;;;4953583;29;20114;-74
2023/11/12 07:05:33;;;;;;;5.85;5.35;;;;;;;;;;4951729;28;20199;-72
2023/11/12 07:08:00;;;;;;;8.23;7.55;;;;;;;;;;4935412;29;20045;-73
2023/11/12 07:10:25;;;;;;;9.55;8.65;;;;;;;;;;4953370;29;20102;-74
2023/11/12 07:12:52;;;;;;;9.05;5.35;;;;;;;;;;4953908;29;20498;-73
2023/11/12 07:15:18;;;;;;;6.95;6.40;;;;;;;;;;4921731;29;20039;-71
2023/11/12 07:17:48;;;;;;;7.43;6.82;;;;;;;;;;4959610;29;20043;-71
2023/11/12 07:20:14;;;;;;;9.33;8.53;;;;;;;;;;4949135;29;20043;-72
2023/11/12 07:22:42;;;;;;;5.55;4.72;;;;;;;;;;4952531;29;20069;-72
2023/11/12 07:25:11;;;;;;;6.80;6.07;;;;;;;;;;4951265;29;20088;-72
2023/11/12 07:27:37;;;;;;;9.00;8.20;;;;;;;;;;4952254;29;20082;-72
2023/11/12 07:30:04;;;;;;;9.20;7.72;;;;;;;;;;4934835;28;20042;-72
2023/11/12 07:32:32;;;;;;;6.72;6.22;;;;;;;;;;4951968;29;20050;-73
2023/11/12 07:34:59;;;;;;;7.85;7.15;;;;;;;;;;4952053;29;20071;-72
2023/11/12 07:37:25;;;;;;;11.35;10.50;;;;;;;;;;4935075;29;20039;-72
2023/11/12 07:39:52;;;;;;;11.95;10.95;;;;;;;;;;4935197;29;20042;-74
2023/11/12 07:42:18;;;;;;;7.38;6.63;;;;;;;;;;4952701;29;20577;-74
2023/11/12 07:44:45;;;;;;;5.55;5.05;;;;;;;;;;4935144;29;20094;-74
2023/11/12 07:47:11;;;;;;;7.18;5.70;;;;;;;;;;4935646;29;20031;-74
2023/11/12 07:49:38;;;;;;;6.60;6.00;;;;;;;;;;4952103;28;20502;-74
2023/11/12 07:52:04;;;;;;;8.38;7.55;;;;;;;;;;4951705;29;20498;-74
2023/11/12 07:54:30;;;;;;;5.20;4.82;;;;;;;;;;4936514;29;20050;-75
2023/11/12 07:56:57;;;;;;;10.90;9.82;;;;;;;;;;4951658;28;20031;-76
2023/11/12 07:59:24;;;;;;;5.22;4.82;;;;;;;;;;4948299;29;20039;-75
2023/11/12 08:01:50;;;;;;;5.57;5.18;;;;;;;;;;4952047;29;20031;-77
2023/11/12 08:04:17;;;;;;;6.80;6.07;;;;;;;;;;4934566;29;20035;-75
2023/11/12 08:06:48;;;;;;;11.85;10.85;;;;;;;;;;4935056;29;20089;-75
2023/11/12 08:09:14;;;;;;;6.18;5.72;;;;;;;;;;4934765;29;20054;-75
2023/11/12 08:11:41;;;;;;;7.43;6.68;;;;;;;;;;4951253;29;20031;-75
2023/11/12 08:14:08;;;;;;;10.50;6.05;;;;;;;;;;4951746;29;20051;-76
2023/11/12 08:16:36;;;;;;;6.80;6.20;;;;;;;;;;4942224;28;20126;-74
2023/11/12 08:19:03;;;;;;;8.30;7.45;;;;;;;;;;4941363;29;20043;-74
2023/11/12 08:21:29;;;;;;;9.68;8.88;;;;;;;;;;4942158;29;20069;-75
2023/11/12 08:23:55;;;;;;;7.95;7.25;;;;;;;;;;4941066;29;20070;-75
2023/11/12 08:26:21;;;;;;;7.05;6.35;;;;;;;;;;4923841;29;20035;-74
2023/11/12 08:28:48;;;;;;;8.88;7.53;;;;;;;;;;4946561;29;20035;-76
2023/11/12 08:31:14;;;;;;;6.15;5.57;;;;;;;;;;4942524;29;20062;-74
2023/11/12 08:33:40;;;;;;;6.85;6.22;;;;;;;;;;4931948;29;20133;-74
2023/11/12 08:36:06;;;;;;;5.72;5.18;;;;;;;;;;4961861;28;20194;-74
2023/11/12 08:38:34;;;;;;;7.60;6.85;;;;;;;;;;4951732;29;20035;-76
2023/11/12 08:41:01;;;;;;;6.20;5.70;;;;;;;;;;4934874;29;20418;-74
2023/11/12 08:43:27;;;;;;;5.82;5.40;;;;;;;;;;4952131;29;20117;-75
2023/11/12 08:45:53;;;;;;;7.47;6.88;;;;;;;;;;4950307;29;20392;-75
2023/11/12 08:48:20;;;;;;;8.38;7.18;;;;;;;;;;4950145;29;20045;-75
2023/11/12 08:50:46;;;;;;;7.85;7.18;;;;;;;;;;4933516;29;20057;-75
2023/11/12 08:53:12;;;;;;;10.60;9.50;;;;;;;;;;4934967;29;20047;-76
2023/11/12 08:55:38;;;;;;;14.52;13.23;;;;;;;;;;4952393;29;20039;-74
2023/11/12 08:58:04;;;;;;;7.53;6.35;;;;;;;;;;4949983;29;20466;-75
2023/11/12 09:00:30;;;;;;;8.50;7.72;;;;;;;;;;4933116;29;20098;-75
2023/11/12 09:02:56;;;;;;;8.65;7.07;;;;;;;;;;4940385;29;20045;-76
2023/11/12 09:05:22;;;;;;;10.10;9.10;;;;;;;;;;4929140;29;20744;-76
2023/11/12 09:07:50;;;;;;;9.60;8.02;;;;;;;;;;4944147;29;20497;-75
2023/11/12 09:10:17;;;;;;;7.35;6.32;;;;;;;;;;4940518;29;20051;-74
2023/11/12 09:12:45;;;;;;;6.53;5.95;;;;;;;;;;4944260;29;20142;-76
2023/11/12 09:15:11;;;;;;;6.43;5.93;;;;;;;;;;4949448;29;20051;-76
2023/11/12 09:17:37;;;;;;;9.13;8.23;;;;;;;;;;4948585;29;20442;-76
2023/11/12 09:20:05;;;;;;;7.57;6.82;;;;;;;;;;4941436;29;20111;-76
2023/11/12 09:22:32;;;;;;;4.80;4.50;;;;;;;;;;4946086;29;20123;-75
2023/11/12 09:24:58;;;;;;;6.78;6.05;;;;;;;;;;4947538;29;20062;-74
2023/11/12 09:27:24;;;;;;;6.55;6.05;;;;;;;;;;4909121;29;20118;-75
2023/11/12 09:29:50;;;;;;;10.50;6.72;;;;;;;;;;4941026;28;20043;-76
2023/11/12 09:32:16;;;;;;;7.07;6.40;;;;;;;;;;4945038;29;20102;-74
2023/11/12 09:34:42;;;;;;;7.50;6.80;;;;;;;;;;4940399;29;20126;-75
2023/11/12 09:37:09;;;;;;;9.05;8.15;;;;;;;;;;4942557;29;20151;-74
2023/11/12 09:39:35;;;;;;;7.57;6.80;;;;;;;;;;4945080;29;20031;-75
2023/11/12 09:42:01;;;;;;;6.07;5.57;;;;;;;;;;4952254;29;20035;-75
2023/11/12 09:44:29;;;;;;;7.03;6.43;;;;;;;;;;4954051;29;20535;-74
2023/11/12 09:47:00;;;;;;;10.32;8.77;;;;;;;;;;4952714;29;20675;-75
2023/11/12 09:49:26;;;;;;;5.28;4.85;;;;;;;;;;4954418;29;20071;-74
2023/11/12 09:51:52;;;;;;;7.78;7.18;;;;;;;;;;4936760;29;20483;-74
2023/11/12 09:54:19;;;;;;;9.13;8.32;;;;;;;;;;4954120;28;20065;-73
2023/11/12 09:56:46;;;;;;;7.28;6.68;;;;;;;;;;4936895;29;20465;-73
2023/11/12 09:59:12;;;;;;;5.35;4.95;;;;;;;;;;4936667;28;20495;-74
2023/11/12 10:01:38;;;;;;;5.18;4.78;;;;;;;;;;4953653;28;20047;-74
2023/11/12 10:04:05;;;;;;;5.35;4.93;;;;;;;;;;4937736;29;20039;-74
2023/11/12 10:06:31;;;;;;;8.80;7.93;;;;;;;;;;4954818;28;20070;-74
2023/11/12 10:09:00;;;;;;;5.07;4.30;;;;;;;;;;4948940;28;20035;-76
2023/11/12 10:11:28;;;;;;;6.53;5.80;;;;;;;;;;4955473;29;20057;-73
2023/11/12 10:13:57;;;;;;;6.50;5.93;;;;;;;;;;4945531;29;20051;-75
2023/11/12 10:16:23;;;;;;;7.57;6.80;;;;;;;;;;4950586;29;20397;-76
2023/11/12 10:18:50;;;;;;;7.35;6.63;;;;;;;;;;4948704;29;20054;-76
2023/11/12 10:21:17;;;;;;;7.25;6.65;;;;;;;;;;4951499;29;20045;-75
2023/11/12 10:23:43;;;;;;;9.98;9.15;;;;;;;;;;4955759;29;20031;-74
2023/11/12 10:26:09;;;;;;;5.63;5.30;;;;;;;;;;4957595;29;20067;-75
2023/11/12 10:28:35;;;;;;;7.32;6.72;;;;;;;;;;4961262;29;20414;-76
2023/11/12 10:31:01;;;;;;;11.73;9.13;;;;;;;;;;4951815;29;20041;-76
2023/11/12 10:33:27;;;;;;;5.65;5.25;;;;;;;;;;4963881;29;20066;-77
2023/11/12 10:35:57;;;;;;;5.22;4.80;;;;;;;;;;4944107;29;20035;-75
2023/11/12 10:38:23;;;;;;;8.82;8.10;;;;;;;;;;4954258;29;20038;-75
2023/11/12 10:41:05;;;;;;;7.30;6.80;;;;;;;;;;4933663;29;20581;-76
2023/11/12 10:43:32;;;;;;;4.90;4.60;;;;;;;;;;4934550;29;20094;-75
2023/11/12 10:46:03;;;;;;;6.57;6.00;;;;;;;;;;4949670;29;20111;-76
2023/11/12 10:48:30;;;;;;;5.30;4.80;;;;;;;;;;4930773;29;20031;-75
2023/11/12 10:50:57;;;;;;;5.78;5.45;;;;;;;;;;4949221;29;20051;-75
2023/11/12 10:53:23;;;;;;;6.07;5.57;;;;;;;;;;4948395;29;20529;-76
2023/11/12 10:55:49;;;;;;;6.18;5.78;;;;;;;;;;4946888;29;20028;-75
2023/11/12 10:58:15;;;;;;;6.60;6.10;;;;;;;;;;4945096;29;20058;-75
2023/11/12 11:00:42;;;;;;;5.00;4.60;;;;;;;;;;4926729;29;20071;-75
2023/11/12 11:03:08;;;;;;;7.30;6.80;;;;;;;;;;4925973;29;20039;-74
2023/11/12 11:05:35;;;;;;;5.68;5.20;;;;;;;;;;4930745;29;20073;-76
2023/11/12 11:08:01;;;;;;;7.50;6.95;;;;;;;;;;4944065;29;20522;-75
2023/11/12 11:10:27;;;;;;;7.40;7.00;;;;;;;;;;4941411;29;20051;-75
2023/11/12 11:12:53;;;;;;;6.97;6.47;;;;;;;;;;4896882;29;20055;-75
2023/11/12 11:15:53;;;;;;;8.40;7.75;;;;;;;;;;4950497;29;20521;-75
2023/11/12 11:18:31;;;;;;;7.93;7.25;;;;;;;;;;4888408;29;20070;-77
2023/11/12 11:21:16;;;;;;;6.82;6.38;;;;;;;;;;4950345;29;20038;-74
2023/11/12 11:23:47;;;;;;;5.68;5.28;;;;;;;;;;4943783;29;20042;-74
2023/11/12 11:26:29;;;;;;;8.25;7.72;;;;;;;;;;4949680;29;20039;-75
2023/11/12 11:29:10;;;;;;;4.82;4.53;;;;;;;;;;4945286;29;20118;-74
2023/11/12 11:31:55;;;;;;;6.90;6.40;;;;;;;;;;4942677;29;20031;-74
2023/11/12 11:34:40;;;;;;;6.90;6.40;;;;;;;;;;4949046;29;20039;-75
2023/11/12 11:37:07;;;;;;;4.90;4.50;;;;;;;;;;4929247;29;20458;-75
2023/11/12 11:39:33;;;;;;;11.20;10.27;;;;;;;;;;4929912;29;20051;-75
2023/11/12 11:42:06;;;;;;;6.15;5.75;;;;;;;;;;4942461;29;20039;-74
2023/11/12 11:44:33;;;;;;;9.65;8.82;;;;;;;;;;4947494;29;20514;-74
2023/11/12 11:47:05;;;;;;;7.20;6.63;;;;;;;;;;4946307;29;20046;-73
2023/11/12 11:49:31;;;;;;;6.90;6.47;;;;;;;;;;4929525;29;20405;-75
2023/11/12 11:52:00;;;;;;;7.25;6.75;;;;;;;;;;4940963;28;20055;-74
2023/11/12 11:54:26;;;;;;;6.85;6.30;;;;;;;;;;4930963;29;20732;-74
2023/11/12 11:56:52;;;;;;;5.47;5.18;;;;;;;;;;4928821;29;20028;-75
2023/11/12 11:59:18;;;;;;;9.35;8.55;;;;;;;;;;4944156;29;20038;-73
2023/11/12 12:01:46;;;;;;;8.20;7.63;;;;;;;;;;4942614;29;20023;-74
2023/11/12 12:04:13;;;;;;;6.00;5.60;;;;;;;;;;4941293;29;20083;-75
2023/11/12 12:06:45;;;;;;;7.40;6.82;;;;;;;;;;4933164;29;20047;-75
2023/11/12 12:09:16;;;;;;;6.22;5.63;;;;;;;;;;4932380;29;20047;-75
2023/11/12 12:11:46;;;;;;;7.40;6.82;;;;;;;;;;4917140;29;20039;-75
2023/11/12 12:14:12;;;;;;;4.00;3.80;;;;;;;;;;4921587;29;20111;-75
2023/11/12 12:16:42;;;;;;;6.65;6.25;;;;;;;;;;4929403;29;20031;-75
2023/11/12 12:19:19;;;;;;;7.45;6.80;;;;;;;;;;4933159;29;20083;-75
2023/11/12 12:21:46;;;;;;;6.20;5.72;;;;;;;;;;4926423;29;20519;-74
2023/11/12 12:24:12;;;;;;;6.05;5.65;;;;;;;;;;4921560;29;20039;-75
2023/11/12 12:26:39;;;;;;;5.05;4.75;;;;;;;;;;4933339;29;20047;-75
2023/11/12 12:29:12;;;;;;;7.65;7.18;;;;;;;;;;4936254;29;20495;-75
2023/11/12 12:31:38;;;;;;;6.72;6.32;;;;;;;;;;4933700;29;20039;-75
2023/11/12 12:34:06;;;;;;;7.25;6.75;;;;;;;;;;4933469;29;20162;-75
2023/11/12 12:36:34;;;;;;;9.55;8.82;;;;;;;;;;4936147;29;20051;-76
2023/11/12 12:39:01;;;;;;;6.28;5.82;;;;;;;;;;4936302;29;20071;-75
2023/11/12 12:41:28;;;;;;;6.50;6.10;;;;;;;;;;4935873;29;20522;-75
2023/11/12 12:43:56;;;;;;;11.02;10.23;;;;;;;;;;4936242;29;20158;-75
2023/11/12 12:46:40;;;;;;;7.35;6.85;;;;;;;;;;4954190;29;20111;-75
2023/11/12 12:49:06;;;;;;;7.65;7.15;;;;;;;;;;4953007;29;20034;-75
2023/11/12 12:51:34;;;;;;;12.45;11.27;;;;;;;;;;4935838;29;20062;-76
2023/11/12 12:54:01;;;;;;;9.10;8.43;;;;;;;;;;4934855;29;20055;-76
2023/11/12 12:56:30;;;;;;;10.48;9.57;;;;;;;;;;4952112;29;20043;-75
2023/11/12 12:58:57;;;;;;;11.77;10.75;;;;;;;;;;4951734;29;20034;-74
2023/11/12 13:01:24;;;;;;;9.52;8.30;;;;;;;;;;4933016;29;20126;-75
2023/11/12 13:03:50;;;;;;;8.35;7.68;;;;;;;;;;4939888;29;20039;-75
2023/11/12 13:06:16;;;;;;;8.68;8.00;;;;;;;;;;4949146;29;20075;-73
2023/11/12 13:08:43;;;;;;;9.88;9.15;;;;;;;;;;4943961;29;20035;-75
2023/11/12 13:11:16;;;;;;;7.03;6.03;;;;;;;;;;4938127;29;20039;-75
2023/11/12 13:13:44;;;;;;;8.68;8.02;;;;;;;;;;4935956;29;20056;-76
2023/11/12 13:16:12;;;;;;;8.77;7.93;;;;;;;;;;4936854;29;20494;-76
2023/11/12 13:18:40;;;;;;;9.45;8.65;;;;;;;;;;4935687;29;20090;-75
2023/11/12 13:21:06;;;;;;;10.00;9.10;;;;;;;;;;4936667;29;20487;-75
2023/11/12 13:23:36;;;;;;;7.63;7.05;;;;;;;;;;4936743;29;20051;-76
2023/11/12 13:26:03;;;;;;;9.43;8.75;;;;;;;;;;4936780;29;20042;-76
2023/11/12 13:28:29;;;;;;;8.68;8.07;;;;;;;;;;4938142;29;20046;-75
2023/11/12 13:30:56;;;;;;;16.08;14.52;;;;;;;;;;4940086;29;20038;-76
2023/11/12 13:33:23;;;;;;;10.65;9.73;;;;;;;;;;4953117;29;20043;-77
2023/11/12 13:35:58;;;;;;;8.35;7.68;;;;;;;;;;4955963;29;20412;-77
2023/11/12 13:38:26;;;;;;;5.20;4.90;;;;;;;;;;4959314;29;20078;-76
2023/11/12 13:40:54;;;;;;;10.85;9.73;;;;;;;;;;4940862;29;20045;-77
2023/11/12 13:43:21;;;;;;;11.57;10.52;;;;;;;;;;4931105;28;20491;-76
2023/11/12 13:45:48;;;;;;;7.22;6.63;;;;;;;;;;4943229;28;20024;-76
2023/11/12 13:48:14;;;;;;;7.80;7.13;;;;;;;;;;4946675;29;20039;-75
2023/11/12 13:50:40;;;;;;;11.80;10.75;;;;;;;;;;4944260;29;20191;-75
2023/11/12 13:53:11;;;;;;;8.75;7.90;;;;;;;;;;4949986;29;20046;-75
2023/11/12 13:55:40;;;;;;;9.30;8.50;;;;;;;;;;4944532;29;20038;-75
2023/11/12 13:58:10;;;;;;;11.93;11.02;;;;;;;;;;4947984;29;20553;-75
2023/11/12 14:00:36;;;;;;;8.32;7.75;;;;;;;;;;4943282;29;20027;-75
2023/11/12 14:03:02;;;;;;;13.18;11.93;;;;;;;;;;4946427;29;20383;-75
2023/11/12 14:05:28;;;;;;;6.30;5.80;;;;;;;;;;4945699;29;20035;-76
2023/11/12 14:07:56;;;;;;;8.65;8.05;;;;;;;;;;4950670;29;20093;-75
2023/11/12 14:10:21;;;;;;;8.85;8.25;;;;;;;;;;4926798;29;20043;-74
2023/11/12 14:12:50;;;;;;;7.60;7.10;;;;;;;;;;4942976;29;20173;-75
2023/11/12 14:15:19;;;;;;;7.47;6.97;;;;;;;;;;4944720;29;20046;-74
2023/11/12 14:17:45;;;;;;;9.40;8.60;;;;;;;;;;4942941;29;20036;-73
2023/11/12 14:20:20;;;;;;;5.75;5.35;;;;;;;;;;4910863;29;20038;-74
2023/11/12 14:22:48;;;;;;;10.27;9.57;;;;;;;;;;4943552;29;20441;-75
2023/11/12 14:25:18;;;;;;;6.43;6.00;;;;;;;;;;4928649;29;20569;-74
2023/11/12 14:27:45;;;;;;;8.07;7.47;;;;;;;;;;4945951;29;20035;-76
2023/11/12 14:30:13;;;;;;;7.60;6.75;;;;;;;;;;4928411;29;20090;-76
2023/11/12 14:32:39;;;;;;;8.30;7.75;;;;;;;;;;4929917;29;20050;-77
2023/11/12 14:35:05;;;;;;;5.95;5.65;;;;;;;;;;4941220;29;20118;-76
2023/11/12 14:37:31;;;;;;;9.88;9.07;;;;;;;;;;4915544;29;20043;-74